Time;durP1;ratioP1;P1;durP2;ratioP2;P2;SDS_P1;SDS_P2;PMS_P1;PMS_P2;Temp;Humidity;BMP_temperature;BMP_pressure;BME280_temperature;BME280_humidity;BME280_pressure;Samples;Min_cycle;Max_cycle;Signal;HPM_P1;HPM_P2
2022/06/23 00:00:33;;;;;;;25.73;24.23;;;13.60;82.20;;;;;;4966820;28;20309;-67
2022/06/23 00:03:00;;;;;;;21.40;20.10;;;13.60;82.00;;;;;;4965062;28;21139;-67
2022/06/23 00:05:29;;;;;;;21.60;20.23;;;13.60;82.30;;;;;;4950654;28;20346;-67
2022/06/23 00:07:57;;;;;;;31.93;29.93;;;13.60;82.30;;;;;;4959785;28;20388;-67
2022/06/23 00:10:28;;;;;;;21.57;20.13;;;13.60;82.30;;;;;;4966448;28;20310;-67
2022/06/23 00:12:54;;;;;;;20.43;19.10;;;13.60;82.30;;;;;;4949235;28;20710;-67
2022/06/23 00:15:29;;;;;;;30.60;28.70;;;13.60;82.50;;;;;;4969502;28;20298;-67
2022/06/23 00:18:01;;;;;;;27.75;26.05;;;13.50;82.70;;;;;;4970018;28;20302;-67
2022/06/23 00:20:32;;;;;;;24.30;22.83;;;13.50;82.80;;;;;;4970368;28;20155;-67
2022/06/23 00:23:22;;;;;;;22.77;21.20;;;13.50;82.90;;;;;;4960482;28;20671;-67
2022/06/23 00:26:11;;;;;;;24.20;22.77;;;13.50;83.00;;;;;;4970528;28;20294;-67
2022/06/23 00:28:47;;;;;;;24.73;23.15;;;13.50;82.90;;;;;;4931088;28;20306;-67
2022/06/23 00:31:28;;;;;;;25.90;24.30;;;13.40;83.00;;;;;;4970417;28;20133;-67
2022/06/23 00:33:54;;;;;;;27.87;26.07;;;13.40;83.10;;;;;;4969236;28;20294;-67
2022/06/23 00:36:35;;;;;;;24.55;23.02;;;13.40;83.00;;;;;;4953288;28;20389;-67
2022/06/23 00:39:07;;;;;;;23.80;22.30;;;13.40;83.40;;;;;;4966390;28;20182;-67
2022/06/23 00:41:36;;;;;;;28.77;26.97;;;13.40;83.30;;;;;;4968952;28;20118;-67
2022/06/23 00:44:12;;;;;;;27.50;25.80;;;13.40;83.40;;;;;;4952988;28;20309;-67
2022/06/23 00:46:46;;;;;;;23.37;21.77;;;13.30;83.40;;;;;;4969768;28;20294;-67
2022/06/23 00:49:22;;;;;;;26.27;24.60;;;13.40;83.70;;;;;;4969296;28;20297;-67
2022/06/23 00:51:52;;;;;;;25.10;23.40;;;13.40;83.60;;;;;;4969746;28;20302;-67
2022/06/23 00:54:41;;;;;;;20.87;19.47;;;13.40;83.80;;;;;;4968432;28;20304;-67
2022/06/23 00:57:20;;;;;;;21.47;19.97;;;13.40;83.60;;;;;;4963995;28;20825;-67
2022/06/23 01:00:08;;;;;;;27.60;25.63;;;13.30;83.60;;;;;;4968518;28;20734;-67
2022/06/23 01:02:42;;;;;;;28.87;26.93;;;13.30;83.70;;;;;;4968771;28;21212;-67
2022/06/23 01:05:15;;;;;;;23.60;22.00;;;13.30;83.90;;;;;;4959918;28;20286;-67
2022/06/23 01:08:13;;;;;;;24.93;23.23;;;13.30;83.80;;;;;;4967322;28;20301;-67
2022/06/23 01:11:12;;;;;;;24.37;22.77;;;13.40;84.50;;;;;;4943568;28;20321;-67
2022/06/23 01:14:15;;;;;;;19.90;18.47;;;13.30;84.30;;;;;;4937990;28;20306;-67
2022/06/23 01:16:52;;;;;;;21.53;20.03;;;13.30;84.40;;;;;;4959314;28;21024;-67
2022/06/23 01:19:30;;;;;;;27.63;25.63;;;13.30;84.40;;;;;;4954003;28;20658;-67
2022/06/23 01:22:01;;;;;;;21.63;20.03;;;13.30;84.70;;;;;;4969054;28;20045;-67
2022/06/23 01:24:39;;;;;;;24.80;22.95;;;13.30;84.10;;;;;;4968477;28;20341;-67
2022/06/23 01:27:13;;;;;;;25.07;23.30;;;13.30;84.70;;;;;;4952501;28;20054;-67
2022/06/23 01:29:48;;;;;;;24.30;22.67;;;13.30;84.40;;;;;;4953469;28;20316;-67
2022/06/23 01:32:31;;;;;;;20.58;19.00;;;13.30;84.50;;;;;;4952896;28;20057;-67
2022/06/23 01:35:16;;;;;;;26.10;24.08;;;13.20;84.40;;;;;;4968792;28;20050;-67
2022/06/23 01:37:48;;;;;;;26.03;24.10;;;13.20;84.40;;;;;;4967518;28;20090;-67
2022/06/23 01:40:17;;;;;;;25.43;23.63;;;13.20;84.70;;;;;;4969093;28;20310;-67
2022/06/23 01:42:50;;;;;;;25.90;24.07;;;13.30;84.90;;;;;;4969569;28;20433;-67
2022/06/23 01:45:43;;;;;;;30.20;28.10;;;13.20;84.60;;;;;;4968472;28;20306;-67
2022/06/23 01:48:51;;;;;;;21.80;19.93;;;13.20;84.60;;;;;;4968263;28;20135;-67
2022/06/23 01:51:27;;;;;;;24.83;22.87;;;13.20;84.70;;;;;;4968567;28;20309;-68
2022/06/23 01:54:11;;;;;;;23.93;22.23;;;13.20;84.60;;;;;;4959232;28;20816;-68
2022/06/23 01:57:05;;;;;;;22.43;20.67;;;13.10;84.90;;;;;;4968774;28;20301;-68
2022/06/23 01:59:48;;;;;;;26.00;23.90;;;13.10;84.80;;;;;;4967447;28;20314;-67
2022/06/23 02:02:22;;;;;;;23.67;21.87;;;13.00;84.80;;;;;;4969172;28;20138;-68
2022/06/23 02:05:24;;;;;;;27.48;25.58;;;13.00;84.90;;;;;;4967440;28;20294;-67
2022/06/23 02:08:05;;;;;;;22.00;20.03;;;13.00;85.00;;;;;;4964741;28;20616;-67
2022/06/23 02:10:35;;;;;;;25.13;23.15;;;13.00;85.00;;;;;;4952968;28;20817;-67
2022/06/23 02:13:13;;;;;;;22.23;20.47;;;13.00;85.30;;;;;;4958323;28;20422;-67
2022/06/23 02:16:03;;;;;;;29.67;27.47;;;13.00;85.40;;;;;;4961995;28;20310;-67
2022/06/23 02:18:51;;;;;;;28.63;26.52;;;13.00;85.40;;;;;;4967430;28;20312;-67
2022/06/23 02:21:43;;;;;;;25.20;23.30;;;13.00;85.40;;;;;;4962563;28;20038;-67
2022/06/23 02:24:27;;;;;;;23.70;21.85;;;12.90;85.20;;;;;;4959891;28;20301;-67
2022/06/23 02:26:59;;;;;;;22.80;20.80;;;12.90;85.70;;;;;;4964751;28;20057;-67
2022/06/23 02:29:30;;;;;;;21.30;19.23;;;12.80;85.70;;;;;;4959820;28;20043;-68
2022/06/23 02:32:23;;;;;;;27.30;25.40;;;12.80;85.60;;;;;;4962331;28;20316;-68
2022/06/23 02:35:20;;;;;;;23.97;21.97;;;12.80;85.90;;;;;;4951163;28;20341;-68
2022/06/23 02:37:57;;;;;;;21.88;19.95;;;12.80;86.00;;;;;;4951693;28;20416;-68
2022/06/23 02:40:41;;;;;;;26.70;24.50;;;12.70;86.10;;;;;;4952043;28;20560;-68
2022/06/23 02:43:13;;;;;;;23.80;21.88;;;12.70;86.00;;;;;;4947365;28;20078;-68
2022/06/23 02:46:18;;;;;;;22.60;20.87;;;12.70;85.90;;;;;;4950977;28;20185;-68
2022/06/23 02:49:03;;;;;;;21.17;19.27;;;12.80;86.00;;;;;;4967528;28;20337;-67
2022/06/23 02:52:09;;;;;;;20.02;18.13;;;12.70;86.00;;;;;;4965371;28;20125;-67
2022/06/23 02:54:59;;;;;;;24.05;22.15;;;12.80;86.00;;;;;;4965264;28;20078;-67
2022/06/23 02:57:34;;;;;;;22.85;20.83;;;12.80;86.10;;;;;;4966091;28;20080;-68
2022/06/23 03:00:16;;;;;;;27.73;25.55;;;12.70;86.20;;;;;;4966550;28;20050;-67
2022/06/23 03:03:13;;;;;;;19.63;17.90;;;12.70;86.10;;;;;;4965579;28;20795;-67
2022/06/23 03:05:45;;;;;;;25.23;22.90;;;12.70;86.10;;;;;;4965412;28;20051;-67
2022/06/23 03:08:30;;;;;;;24.23;22.00;;;12.70;86.40;;;;;;4960341;28;20819;-67
2022/06/23 03:10:58;;;;;;;23.40;21.35;;;12.70;86.30;;;;;;4950853;28;20047;-67
2022/06/23 03:13:42;;;;;;;25.23;22.92;;;12.70;86.20;;;;;;4965377;28;20070;-67
2022/06/23 03:16:11;;;;;;;23.25;21.05;;;12.70;86.50;;;;;;4944154;29;20392;-67
2022/06/23 03:18:52;;;;;;;24.10;22.00;;;12.70;86.50;;;;;;4961872;28;20043;-67
2022/06/23 03:21:23;;;;;;;23.08;20.85;;;12.60;86.40;;;;;;4951890;28;20294;-67
2022/06/23 03:24:08;;;;;;;21.73;19.58;;;12.70;86.60;;;;;;4950762;28;20126;-67
2022/06/23 03:27:00;;;;;;;24.50;22.25;;;12.70;86.60;;;;;;4967314;28;20042;-67
2022/06/23 03:29:36;;;;;;;28.33;26.02;;;12.70;86.60;;;;;;4961085;28;20039;-67
2022/06/23 03:32:10;;;;;;;24.58;22.40;;;12.70;86.60;;;;;;4965063;28;20042;-67
2022/06/23 03:35:02;;;;;;;25.48;23.42;;;12.70;86.70;;;;;;4965874;28;20053;-67
2022/06/23 03:37:44;;;;;;;27.85;25.25;;;12.70;86.80;;;;;;4931245;28;20065;-67
2022/06/23 03:43:15;;;;;;;29.53;27.07;;;12.70;87.20;;;;;;4966515;28;20055;-67
2022/06/23 03:46:16;;;;;;;30.43;27.87;;;12.80;86.90;;;;;;4947408;28;20337;-67
2022/06/23 03:48:57;;;;;;;25.95;23.63;;;12.80;86.80;;;;;;4969515;28;20417;-67
2022/06/23 03:51:28;;;;;;;28.85;26.58;;;12.80;86.70;;;;;;4959957;28;20550;-67
2022/06/23 03:54:06;;;;;;;25.80;23.47;;;12.90;86.90;;;;;;4947781;28;20094;-67
2022/06/23 03:56:45;;;;;;;27.27;24.77;;;12.90;87.00;;;;;;4965824;28;20294;-67
2022/06/23 03:59:46;;;;;;;25.95;23.65;;;12.90;86.90;;;;;;4954008;28;20406;-67
2022/06/23 04:02:17;;;;;;;27.90;25.45;;;12.90;86.90;;;;;;4950401;28;20055;-67
2022/06/23 04:04:52;;;;;;;30.02;27.58;;;12.90;87.00;;;;;;4944305;29;20856;-67
2022/06/23 04:07:56;;;;;;;33.25;30.55;;;13.00;86.70;;;;;;4962226;28;20109;-67
2022/06/23 04:10:36;;;;;;;28.70;26.23;;;13.00;86.80;;;;;;4951230;28;20531;-67
2022/06/23 04:13:13;;;;;;;26.83;24.38;;;13.00;86.80;;;;;;4932041;29;20094;-67
2022/06/23 04:15:41;;;;;;;33.95;31.30;;;13.10;86.50;;;;;;4943881;28;20047;-67
2022/06/23 04:18:17;;;;;;;34.35;31.73;;;13.10;86.50;;;;;;4960109;28;20401;-67
2022/06/23 04:20:48;;;;;;;29.70;27.20;;;13.20;86.50;;;;;;4946749;29;20046;-67
2022/06/23 04:23:22;;;;;;;36.10;33.20;;;13.20;86.30;;;;;;4962974;28;20301;-67
2022/06/23 04:25:57;;;;;;;29.95;27.38;;;13.30;86.30;;;;;;4946424;29;20306;-67
2022/06/23 04:28:29;;;;;;;30.60;28.15;;;13.30;86.00;;;;;;4963282;28;20388;-67
2022/06/23 04:30:57;;;;;;;30.73;28.38;;;13.40;85.90;;;;;;4965857;28;20043;-67
2022/06/23 04:33:25;;;;;;;36.80;33.97;;;13.50;85.60;;;;;;4953415;28;20047;-67
2022/06/23 04:35:58;;;;;;;33.20;30.70;;;13.60;86.10;;;;;;4964903;28;20046;-67
2022/06/23 04:38:49;;;;;;;36.53;34.07;;;14.30;86.20;;;;;;4964865;28;20310;-67
2022/06/23 04:41:24;;;;;;;36.70;34.10;;;15.50;83.60;;;;;;4959195;28;20299;-68
2022/06/23 04:44:02;;;;;;;33.95;31.73;;;16.50;80.30;;;;;;4965398;28;20302;-68
2022/06/23 04:46:36;;;;;;;39.27;36.77;;;17.40;76.20;;;;;;4966104;28;20046;-67
2022/06/23 04:49:15;;;;;;;43.00;40.30;;;18.10;72.90;;;;;;4950025;28;20301;-67
2022/06/23 04:52:12;;;;;;;41.57;38.97;;;18.50;71.90;;;;;;4964212;28;20050;-67
2022/06/23 04:54:56;;;;;;;40.37;37.77;;;19.10;70.20;;;;;;4967677;28;20313;-67
2022/06/23 04:57:34;;;;;;;48.80;46.00;;;19.70;68.60;;;;;;4962629;28;21069;-67
2022/06/23 05:00:03;;;;;;;43.00;40.40;;;20.20;66.90;;;;;;4946684;28;20345;-68
2022/06/23 05:02:41;;;;;;;43.13;40.63;;;20.40;65.70;;;;;;4967176;28;20302;-68
2022/06/23 05:05:09;;;;;;;43.53;41.00;;;20.80;65.20;;;;;;4952946;28;20802;-68
2022/06/23 05:07:55;;;;;;;45.10;42.47;;;21.20;64.70;;;;;;4963656;28;20672;-68
2022/06/23 05:10:26;;;;;;;50.58;47.67;;;21.70;63.40;;;;;;4967111;28;20663;-68
2022/06/23 05:13:21;;;;;;;55.73;52.67;;;22.10;61.70;;;;;;4954137;28;20112;-68
2022/06/23 05:15:51;;;;;;;47.30;44.60;;;22.10;60.00;;;;;;4972402;28;20345;-68
2022/06/23 05:18:25;;;;;;;55.13;52.03;;;22.20;60.10;;;;;;4949893;28;20047;-66
2022/06/23 05:20:57;;;;;;;48.10;45.30;;;22.20;59.40;;;;;;4949590;29;20337;-66
2022/06/23 05:23:49;;;;;;;49.93;47.23;;;22.30;59.30;;;;;;4967637;28;20302;-66
2022/06/23 05:26:24;;;;;;;46.80;44.07;;;22.40;59.10;;;;;;4937471;28;20300;-67
2022/06/23 05:28:59;;;;;;;49.23;46.60;;;22.50;59.30;;;;;;4967921;28;20310;-67
2022/06/23 05:31:31;;;;;;;41.80;39.40;;;22.80;58.40;;;;;;4968397;28;20294;-66
2022/06/23 05:34:08;;;;;;;48.23;45.50;;;23.00;57.70;;;;;;4947442;29;20046;-66
2022/06/23 05:36:55;;;;;;;45.80;43.33;;;23.00;57.90;;;;;;4935470;28;20314;-67
2022/06/23 05:39:47;;;;;;;44.50;41.93;;;23.20;57.00;;;;;;4965174;28;20674;-67
2022/06/23 05:42:21;;;;;;;43.67;41.10;;;23.30;56.90;;;;;;4959423;28;20871;-67
2022/06/23 05:44:58;;;;;;;50.03;47.33;;;23.40;57.00;;;;;;4949286;28;20542;-67
2022/06/23 05:47:29;;;;;;;46.47;43.83;;;23.50;56.70;;;;;;4968014;28;20252;-67
2022/06/23 05:49:58;;;;;;;54.87;51.73;;;23.60;56.30;;;;;;4967403;28;20039;-67
2022/06/23 05:52:32;;;;;;;53.63;50.70;;;23.90;55.80;;;;;;4967893;28;20050;-67
2022/06/23 05:55:12;;;;;;;41.77;39.33;;;23.90;54.80;;;;;;4965749;28;20380;-67
2022/06/23 05:57:52;;;;;;;40.43;38.03;;;23.50;55.60;;;;;;4969232;28;20402;-67
2022/06/23 06:00:26;;;;;;;40.87;38.50;;;23.50;56.20;;;;;;4957248;28;20494;-67
2022/06/23 06:02:58;;;;;;;49.40;46.58;;;23.50;56.80;;;;;;4969116;28;20041;-67
2022/06/23 06:05:34;;;;;;;46.73;44.07;;;23.80;55.40;;;;;;4968421;28;20031;-67
2022/06/23 06:08:05;;;;;;;44.20;41.57;;;23.80;56.00;;;;;;4960881;28;20042;-67
2022/06/23 06:10:33;;;;;;;47.57;44.70;;;23.90;56.10;;;;;;4964313;28;20047;-67
2022/06/23 06:12:59;;;;;;;41.90;39.27;;;24.20;55.50;;;;;;4963655;28;20089;-67
2022/06/23 06:15:26;;;;;;;34.30;32.23;;;24.30;55.40;;;;;;4963381;28;20066;-67
2022/06/23 06:18:01;;;;;;;39.43;37.10;;;24.30;55.40;;;;;;4954627;28;20035;-67
2022/06/23 06:20:27;;;;;;;39.17;37.05;;;24.60;54.70;;;;;;4954648;28;20051;-67
2022/06/23 06:23:06;;;;;;;38.63;36.43;;;24.70;54.90;;;;;;4950202;28;20038;-67
2022/06/23 06:25:39;;;;;;;39.17;36.97;;;24.90;54.60;;;;;;4933856;29;20523;-67
2022/06/23 06:28:29;;;;;;;40.33;38.03;;;25.10;54.20;;;;;;4959534;28;20384;-66
2022/06/23 06:31:15;;;;;;;44.57;42.07;;;25.10;53.50;;;;;;4960095;28;20050;-66
2022/06/23 06:33:57;;;;;;;41.57;39.07;;;25.10;53.50;;;;;;4964329;28;20096;-66
2022/06/23 06:36:27;;;;;;;46.17;43.57;;;25.10;54.00;;;;;;4949023;29;20046;-67
2022/06/23 06:39:03;;;;;;;42.80;40.07;;;25.00;53.90;;;;;;4950958;28;20122;-67
2022/06/23 06:41:30;;;;;;;38.30;36.13;;;25.00;53.80;;;;;;4966527;28;20126;-66
2022/06/23 06:43:57;;;;;;;44.07;41.63;;;24.90;53.90;;;;;;4966678;28;20431;-66
2022/06/23 06:46:23;;;;;;;41.77;39.27;;;24.90;53.90;;;;;;4951557;28;20043;-68
2022/06/23 06:48:49;;;;;;;41.13;38.83;;;24.70;54.60;;;;;;4966105;28;20065;-68
2022/06/23 06:51:21;;;;;;;45.07;42.60;;;24.40;54.70;;;;;;4966567;28;20051;-68
2022/06/23 06:53:56;;;;;;;42.23;39.70;;;24.30;54.90;;;;;;4947777;29;20050;-68
2022/06/23 06:56:44;;;;;;;43.90;41.43;;;24.30;55.40;;;;;;4964336;28;20047;-68
2022/06/23 06:59:39;;;;;;;40.77;38.33;;;24.10;55.40;;;;;;4965578;28;20133;-68
2022/06/23 07:02:14;;;;;;;39.72;37.45;;;23.80;55.50;;;;;;4959017;28;20070;-68
2022/06/23 07:04:52;;;;;;;35.50;33.33;;;23.50;56.80;;;;;;4965449;28;20046;-68
2022/06/23 07:07:23;;;;;;;43.53;41.10;;;23.30;57.40;;;;;;4966674;28;20039;-68
2022/06/23 07:09:57;;;;;;;42.33;39.83;;;23.30;58.10;;;;;;4955408;28;20061;-68
2022/06/23 07:12:33;;;;;;;34.23;32.13;;;23.10;58.40;;;;;;4948172;28;20082;-68
2022/06/23 07:15:36;;;;;;;42.73;40.37;;;23.00;58.90;;;;;;4966552;28;20050;-68
2022/06/23 07:18:12;;;;;;;39.53;37.23;;;22.90;58.40;;;;;;4967095;28;20053;-68
2022/06/23 07:21:08;;;;;;;41.00;38.70;;;22.60;59.40;;;;;;4967194;28;20487;-67
2022/06/23 07:23:47;;;;;;;42.13;39.87;;;22.50;59.20;;;;;;4935807;28;20492;-67
2022/06/23 07:26:38;;;;;;;44.47;42.20;;;22.20;61.10;;;;;;4966873;28;20053;-68
2022/06/23 07:29:34;;;;;;;42.77;40.43;;;22.10;61.60;;;;;;4950715;28;20098;-67
2022/06/23 07:32:10;;;;;;;36.53;34.50;;;22.00;61.50;;;;;;4950059;28;20113;-68
2022/06/23 07:34:41;;;;;;;38.40;36.30;;;21.90;62.40;;;;;;4966874;28;20097;-67
2022/06/23 07:37:40;;;;;;;40.90;38.50;;;21.90;61.90;;;;;;4965495;28;20126;-67
2022/06/23 07:40:07;;;;;;;37.23;35.20;;;21.90;61.40;;;;;;4968202;28;20074;-71
2022/06/23 07:42:48;;;;;;;40.73;38.43;;;21.70;62.30;;;;;;4967765;28;20043;-68
2022/06/23 07:45:41;;;;;;;36.00;33.87;;;21.80;62.20;;;;;;4966188;28;20043;-68
2022/06/23 07:48:07;;;;;;;38.17;36.13;;;21.80;62.30;;;;;;4966103;28;20043;-67
2022/06/23 07:50:33;;;;;;;35.30;33.20;;;21.90;62.10;;;;;;4951142;28;20536;-67
2022/06/23 07:52:59;;;;;;;40.67;38.50;;;21.90;62.40;;;;;;4950429;28;20047;-67
2022/06/23 07:55:38;;;;;;;37.07;34.77;;;22.00;62.10;;;;;;4965932;28;20050;-68
2022/06/23 07:58:04;;;;;;;38.77;36.50;;;22.20;61.00;;;;;;4965024;28;20419;-67
2022/06/23 08:00:33;;;;;;;33.53;31.63;;;22.20;61.20;;;;;;4951044;28;20047;-68
2022/06/23 08:03:05;;;;;;;39.37;37.00;;;22.30;61.00;;;;;;4965284;28;20046;-68
2022/06/23 08:05:43;;;;;;;34.40;32.10;;;22.40;60.20;;;;;;4966037;28;20056;-67
2022/06/23 08:08:18;;;;;;;34.40;32.33;;;22.50;61.10;;;;;;4966319;28;20716;-67
2022/06/23 08:10:45;;;;;;;29.90;28.23;;;22.60;60.10;;;;;;4948360;28;20229;-67
2022/06/23 08:13:27;;;;;;;30.80;28.93;;;22.70;60.20;;;;;;4946864;29;20058;-67
2022/06/23 08:18:51;;;;;;;33.30;31.17;;;23.10;59.60;;;;;;4959725;28;20499;-67
2022/06/23 08:21:41;;;;;;;33.97;32.03;;;23.20;58.80;;;;;;4950761;28;20044;-67
2022/06/23 08:24:14;;;;;;;33.97;31.93;;;23.40;58.10;;;;;;4964064;28;20054;-67
2022/06/23 08:26:44;;;;;;;35.07;33.17;;;23.50;57.70;;;;;;4966767;28;20176;-67
2022/06/23 08:29:14;;;;;;;36.47;34.50;;;23.50;58.50;;;;;;4964677;28;20054;-67
2022/06/23 08:31:40;;;;;;;33.90;32.10;;;23.70;57.80;;;;;;4966061;28;20046;-67
2022/06/23 08:34:08;;;;;;;37.97;35.93;;;23.80;57.40;;;;;;4965713;28;20051;-68
2022/06/23 08:36:52;;;;;;;34.67;32.87;;;23.90;57.60;;;;;;4953752;28;20046;-68
2022/06/23 08:39:27;;;;;;;30.27;28.47;;;24.00;57.40;;;;;;4968413;28;20039;-68
2022/06/23 08:42:04;;;;;;;34.17;32.30;;;24.20;56.80;;;;;;4968957;28;20038;-68
2022/06/23 08:44:58;;;;;;;32.43;30.70;;;24.30;56.50;;;;;;4969583;28;20051;-68
2022/06/23 08:47:53;;;;;;;31.80;30.00;;;24.40;56.40;;;;;;4959672;28;20045;-68
2022/06/23 08:50:24;;;;;;;;;;;24.60;55.40;;;;;;4954071;28;20047;-68
2022/06/23 08:53:06;;;;;;;32.83;31.03;;;24.70;55.60;;;;;;4968476;28;19926;-68
2022/06/23 08:55:47;;;;;;;33.73;31.93;;;24.80;54.90;;;;;;4952894;28;20394;-68
2022/06/23 08:58:27;;;;;;;33.20;31.20;;;24.90;54.70;;;;;;4968074;28;20396;-68
2022/06/23 09:01:05;;;;;;;32.97;30.97;;;25.10;55.00;;;;;;4967940;28;20039;-68
2022/06/23 09:03:46;;;;;;;31.27;29.53;;;25.20;54.30;;;;;;4969315;28;20106;-68
2022/06/23 09:06:39;;;;;;;33.73;32.03;;;25.30;54.40;;;;;;4968004;28;20106;-68
2022/06/23 09:09:29;;;;;;;34.07;32.30;;;25.60;52.40;;;;;;4968060;28;20499;-68
2022/06/23 09:12:06;;;;;;;33.50;31.67;;;25.70;52.80;;;;;;4961702;28;20415;-67
2022/06/23 09:14:49;;;;;;;36.07;34.17;;;25.70;52.60;;;;;;4952378;28;20050;-67
2022/06/23 09:17:26;;;;;;;27.40;26.10;;;25.80;52.40;;;;;;4963004;28;20488;-68
2022/06/23 09:20:16;;;;;;;37.03;35.00;;;25.90;51.20;;;;;;4957571;28;20515;-68
2022/06/23 09:23:04;;;;;;;30.83;29.17;;;25.90;51.20;;;;;;4951471;28;20054;-68
2022/06/23 09:26:10;;;;;;;32.53;30.73;;;26.00;51.50;;;;;;4966995;28;20143;-68
2022/06/23 09:28:41;;;;;;;35.77;33.97;;;26.10;51.20;;;;;;4904696;29;20107;-68
2022/06/23 09:31:31;;;;;;;39.20;37.20;;;26.20;51.50;;;;;;4942302;28;20054;-68
2022/06/23 09:34:28;;;;;;;31.03;29.33;;;26.30;52.20;;;;;;4945169;28;20039;-68
2022/06/23 09:37:31;;;;;;;30.80;29.20;;;26.40;50.80;;;;;;4959945;28;20074;-68
2022/06/23 09:40:19;;;;;;;31.50;29.90;;;26.60;50.00;;;;;;4961958;28;20054;-68
2022/06/23 09:43:20;;;;;;;36.10;34.20;;;26.70;50.40;;;;;;4959641;28;20050;-68
2022/06/23 09:46:27;;;;;;;34.80;33.00;;;26.70;49.90;;;;;;4943018;28;20117;-68
2022/06/23 09:49:04;;;;;;;28.97;27.17;;;26.90;50.10;;;;;;4962334;28;20046;-68
2022/06/23 09:51:36;;;;;;;37.20;35.47;;;27.00;48.80;;;;;;4952023;28;20063;-68
2022/06/23 09:54:50;;;;;;;35.63;33.80;;;27.10;48.50;;;;;;4958203;28;20086;-68
2022/06/23 09:58:03;;;;;;;32.53;30.83;;;27.10;49.10;;;;;;4935943;29;20050;-68
2022/06/23 10:00:42;;;;;;;35.80;33.90;;;27.20;49.60;;;;;;4959291;28;20402;-67
2022/06/23 10:03:24;;;;;;;29.50;27.87;;;27.30;47.90;;;;;;4963880;28;20066;-67
2022/06/23 10:06:14;;;;;;;29.80;28.23;;;27.40;47.20;;;;;;4961408;28;20085;-67
2022/06/23 10:09:12;;;;;;;32.77;31.07;;;27.40;47.60;;;;;;4967239;28;20043;-67
2022/06/23 10:11:56;;;;;;;33.43;31.67;;;27.50;47.40;;;;;;4958165;28;20063;-68
2022/06/23 10:14:39;;;;;;;29.38;27.95;;;27.60;47.20;;;;;;4966412;28;20059;-68
2022/06/23 10:17:23;;;;;;;32.93;31.13;;;27.80;46.70;;;;;;4963683;28;20517;-67
2022/06/23 10:20:07;;;;;;;30.27;28.55;;;27.80;47.40;;;;;;4967286;28;20101;-67
2022/06/23 10:23:11;;;;;;;35.23;33.43;;;27.90;47.30;;;;;;4965634;28;20127;-67
2022/06/23 10:26:04;;;;;;;28.13;26.63;;;28.00;45.70;;;;;;4956084;28;20075;-67
2022/06/23 10:28:52;;;;;;;28.90;27.40;;;28.10;46.20;;;;;;4951482;28;20137;-67
2022/06/23 10:31:35;;;;;;;34.07;32.27;;;28.30;46.30;;;;;;4948849;28;20043;-67
2022/06/23 10:34:28;;;;;;;30.27;28.73;;;28.30;46.50;;;;;;4961051;28;20054;-68
2022/06/23 10:37:15;;;;;;;32.63;31.10;;;28.40;45.00;;;;;;4940793;28;20047;-68
2022/06/23 10:40:01;;;;;;;30.87;29.37;;;28.50;44.60;;;;;;4966440;28;20057;-68
2022/06/23 10:42:44;;;;;;;28.07;26.53;;;28.50;44.60;;;;;;4952693;28;20110;-68
2022/06/23 10:45:22;;;;;;;30.10;28.57;;;28.60;44.30;;;;;;4948416;28;20578;-68
2022/06/23 10:48:12;;;;;;;31.73;30.33;;;28.70;44.00;;;;;;4962115;28;20615;-68
2022/06/23 10:50:40;;;;;;;34.43;32.43;;;28.70;44.80;;;;;;4955483;28;20058;-68
2022/06/23 10:53:41;;;;;;;33.53;31.73;;;28.80;45.00;;;;;;4952679;28;20061;-68
2022/06/23 10:56:53;;;;;;;30.97;29.47;;;28.90;44.00;;;;;;4942162;28;20047;-68
2022/06/23 10:59:57;;;;;;;35.13;33.43;;;29.00;43.60;;;;;;4964990;28;20051;-67
2022/06/23 11:02:45;;;;;;;33.50;31.40;;;29.00;46.60;;;;;;4959771;28;20105;-68
2022/06/23 11:05:32;;;;;;;30.73;28.97;;;29.10;45.10;;;;;;4952154;28;20058;-68
2022/06/23 11:08:50;;;;;;;30.70;28.67;;;29.30;43.70;;;;;;4945615;28;20053;-68
2022/06/23 11:11:39;;;;;;;27.73;26.50;;;29.30;43.20;;;;;;4962476;28;20065;-67
2022/06/23 11:14:19;;;;;;;32.70;31.13;;;29.30;43.90;;;;;;4942330;28;20399;-68
2022/06/23 11:17:23;;;;;;;28.63;27.17;;;29.40;43.50;;;;;;4962761;28;20045;-68
2022/06/23 11:19:52;;;;;;;29.10;27.70;;;29.60;44.00;;;;;;4946061;28;20054;-68
2022/06/23 11:22:29;;;;;;;33.53;31.93;;;29.60;43.50;;;;;;4966071;28;20090;-68
2022/06/23 11:25:11;;;;;;;34.50;32.70;;;29.70;43.30;;;;;;4966043;28;20129;-68
2022/06/23 11:27:48;;;;;;;30.27;28.77;;;29.70;42.70;;;;;;4936624;28;20035;-68
2022/06/23 11:30:44;;;;;;;31.87;30.37;;;29.80;43.30;;;;;;4963899;28;20054;-68
2022/06/23 11:33:27;;;;;;;28.60;27.30;;;29.80;43.00;;;;;;4961603;28;20085;-68
2022/06/23 11:36:37;;;;;;;31.30;29.43;;;29.80;42.70;;;;;;4955093;28;20046;-68
2022/06/23 11:39:20;;;;;;;32.03;30.43;;;29.90;42.20;;;;;;4978054;28;20082;-68
2022/06/23 11:42:18;;;;;;;27.90;26.57;;;30.00;42.30;;;;;;4963816;28;20078;-67
2022/06/23 11:45:05;;;;;;;32.87;31.13;;;30.10;42.30;;;;;;4965893;28;20483;-67
2022/06/23 11:47:54;;;;;;;33.60;31.70;;;30.20;43.20;;;;;;4964329;28;20331;-67
2022/06/23 11:50:46;;;;;;;30.83;29.03;;;30.30;42.50;;;;;;4963634;28;20047;-67
2022/06/23 11:53:34;;;;;;;33.23;31.57;;;30.30;42.20;;;;;;4946458;28;20113;-67
2022/06/23 11:56:18;;;;;;;30.17;28.43;;;30.50;43.30;;;;;;4943897;28;20043;-68
2022/06/23 11:59:22;;;;;;;33.05;31.42;;;30.70;42.50;;;;;;4957122;28;20049;-68
2022/06/23 12:01:47;;;;;;;37.60;35.80;;;30.70;41.80;;;;;;4963568;28;20050;-68
2022/06/23 12:04:32;;;;;;;32.03;30.33;;;30.70;42.50;;;;;;4941200;28;20039;-68
2022/06/23 12:07:01;;;;;;;33.83;32.05;;;30.70;42.70;;;;;;4963020;28;20035;-68
2022/06/23 12:09:52;;;;;;;31.30;29.60;;;30.70;43.00;;;;;;4963217;28;20055;-68
2022/06/23 12:12:19;;;;;;;34.80;33.00;;;30.70;42.00;;;;;;4949145;28;20153;-68
2022/06/23 12:14:45;;;;;;;33.37;31.77;;;30.80;42.20;;;;;;4961992;28;20082;-68
2022/06/23 12:17:20;;;;;;;35.00;33.10;;;30.80;42.50;;;;;;4956301;28;20078;-68
2022/06/23 12:19:48;;;;;;;30.03;28.63;;;30.90;42.30;;;;;;4959391;28;20066;-68
2022/06/23 12:22:21;;;;;;;34.03;32.37;;;31.00;42.10;;;;;;4964579;28;20108;-68
2022/06/23 12:24:55;;;;;;;36.87;35.03;;;31.00;41.70;;;;;;4949746;28;20039;-68
2022/06/23 12:27:31;;;;;;;33.88;32.25;;;31.00;41.70;;;;;;4944804;28;20511;-68
2022/06/23 12:30:06;;;;;;;35.73;33.87;;;31.10;41.90;;;;;;4964478;28;20074;-68
2022/06/23 12:32:49;;;;;;;37.43;35.53;;;31.10;42.20;;;;;;4960748;28;20050;-68
2022/06/23 12:35:38;;;;;;;33.23;31.60;;;31.20;42.80;;;;;;4969388;28;20090;-68
2022/06/23 12:38:12;;;;;;;30.57;28.97;;;31.30;42.90;;;;;;4940315;28;20379;-68
2022/06/23 12:40:46;;;;;;;32.93;31.40;;;31.40;42.70;;;;;;4969992;28;20459;-68
2022/06/23 12:43:22;;;;;;;;;;;31.60;42.60;;;;;;4968630;28;20701;-68
2022/06/23 12:46:02;;;;;;;28.30;26.57;;;31.80;42.20;;;;;;4969634;28;19993;-68
2022/06/23 12:49:03;;;;;;;35.00;33.17;;;31.90;41.20;;;;;;4968380;28;20050;-68
2022/06/23 12:51:44;;;;;;;31.10;29.60;;;32.00;40.70;;;;;;4931653;28;20058;-68
2022/06/23 12:54:50;;;;;;;33.73;31.83;;;32.00;41.20;;;;;;4968401;28;20507;-68
2022/06/23 12:57:43;;;;;;;33.03;31.53;;;32.00;40.20;;;;;;4957190;28;20538;-68
2022/06/23 13:00:16;;;;;;;30.23;28.63;;;32.10;41.40;;;;;;4967129;28;20051;-68
2022/06/23 13:02:47;;;;;;;32.03;30.47;;;32.20;40.20;;;;;;4970462;28;20039;-68
2022/06/23 13:05:29;;;;;;;32.03;30.33;;;32.20;39.50;;;;;;4970674;28;20078;-69
2022/06/23 13:08:11;;;;;;;31.70;30.00;;;32.10;40.50;;;;;;4969433;28;20079;-68
2022/06/23 13:10:46;;;;;;;32.07;30.40;;;32.10;41.10;;;;;;4968447;28;20488;-68
2022/06/23 13:13:23;;;;;;;33.00;31.40;;;32.20;40.40;;;;;;4969143;28;20243;-68
2022/06/23 13:15:56;;;;;;;30.17;28.87;;;32.20;39.40;;;;;;4953110;28;20566;-68
2022/06/23 13:18:29;;;;;;;31.87;30.47;;;32.30;38.90;;;;;;4969448;28;20050;-68
2022/06/23 13:21:14;;;;;;;29.80;28.30;;;32.40;39.00;;;;;;4969152;28;20615;-68
2022/06/23 13:23:43;;;;;;;29.60;27.90;;;32.50;39.50;;;;;;4976950;28;20412;-68
2022/06/23 13:26:28;;;;;;;25.08;23.67;;;32.60;39.30;;;;;;4963156;28;20043;-71
2022/06/23 13:29:08;;;;;;;36.50;34.47;;;32.60;38.20;;;;;;4948380;29;20102;-68
2022/06/23 13:31:42;;;;;;;26.38;24.77;;;32.70;39.10;;;;;;4959587;28;20085;-68
2022/06/23 13:34:19;;;;;;;27.92;26.52;;;32.70;37.60;;;;;;4956212;28;20039;-68
2022/06/23 13:37:07;;;;;;;27.30;25.90;;;32.80;37.80;;;;;;4962789;28;20122;-68
2022/06/23 13:39:48;;;;;;;30.50;28.90;;;32.80;37.80;;;;;;4953485;28;20046;-68
2022/06/23 13:42:24;;;;;;;28.80;27.20;;;32.80;38.30;;;;;;4969424;28;20051;-68